Latest Coastal Weather Observations for Walpole North

IDW60701

Issued at 4:43 pm WST Saturday 10 December 2016 (issued every 10 minutes, with the page automatically refreshed every 10 minutes)

About coastal observations | Map of coastal stations | Coastal observations for WA | Marine services | Other Formats
Station Details ID: 009998 Name: NORTH WALPOLE Lat: -34.95 Lon: 116.72 Height: 73.0 m
Data from the previous 72 hours. | See also: Recent months at Walpole North
Date/Time
WST
Temp
°C
Wind Pressure Rain since
9am
mm
Weather Cloud Vis
km
Sea
Height
m
Swell
Dir  Spd
kts
Gust
kts
hPa Trend Height
m
Period
s
Dir
10/04:30pm 26.0 SE 8 12 1008.3 - 0.0 - - - - - - -
10/04:00pm 25.7 SE 10 14 1008.8 - 0.0 - - - - - - -
10/03:30pm 25.3 SE 9 13 1009.0 - 0.0 - - - - - - -
10/03:00pm 26.0 SSE 6 10 1009.3 - 0.0 - - - - - - -
10/02:30pm 26.8 SSE 7 13 1009.7 - 0.0 - - - - - - -
10/02:00pm 26.8 S 6 10 1010.2 - 0.0 - - - - - - -
10/01:30pm 27.3 SSE 7 11 1010.7 - 0.0 - - - - - - -
10/01:00pm 27.6 SSE 8 12 1011.1 - 0.0 - - - - - - -
10/12:30pm 29.0 SE 8 12 1011.5 - 0.0 - - - - - - -
10/12:00pm 28.6 ESE 7 13 1011.9 - 0.0 - - - - - - -
10/11:30am 27.8 SE 7 11 1012.6 - 0.0 - - - - - - -
10/11:00am 26.9 E 8 14 1013.2 - 0.0 - - - - - - -
10/10:30am 25.4 E 8 16 1013.8 - 0.0 - - - - - - -
10/10:00am 24.8 E 7 11 1014.4 - 0.0 - - - - - - -
10/09:30am 23.5 E 8 12 1014.8 - 0.0 - - - - - - -
10/09:00am 21.8 E 9 14 1015.2 - 0.0 - - - - - - -
10/08:30am 21.3 E 9 13 1015.5 - 0.0 - - - - - - -
10/08:00am 20.5 E 9 12 1015.8 - 0.0 - - - - - - -
10/07:30am 19.0 E 8 11 1016.3 - 0.0 - - - - - - -
10/07:00am 17.6 E 7 10 1016.4 - 0.0 - - - - - - -
10/06:30am 16.2 ESE 4 6 1016.5 - 0.0 - - - - - - -
10/06:00am 15.1 E 4 5 1016.5 - 0.0 - - - - - - -
10/05:30am 14.1 E 4 5 1016.4 - 0.0 - - - - - - -
10/05:00am 14.0 E 4 5 1016.6 - 0.0 - - - - - - -
10/04:30am 14.2 E 4 6 1016.4 - 0.0 - - - - - - -
10/04:00am 14.8 E 6 8 1016.2 - 0.0 - - - - - - -
10/03:30am 15.1 E 6 7 1016.2 - 0.0 - - - - - - -
10/03:00am 15.1 E 5 8 1016.2 - 0.0 - - - - - - -
10/02:30am 15.5 E 6 8 1016.2 - 0.0 - - - - - - -
10/02:00am 15.8 E 7 11 1016.3 - 0.0 - - - - - - -
10/01:30am 16.4 E 6 11 1016.4 - 0.0 - - - - - - -
10/01:00am 16.3 ESE 6 9 1016.7 - 0.0 - - - - - - -
10/12:30am 16.2 ESE 7 10 1016.9 - 0.0 - - - - - - -
10/12:00am 16.4 ESE 6 11 1017.1 - 0.0 - - - - - - -
 
Date/Time
WST
Temp
°C
Wind Pressure Rain since
9am
mm
Weather Cloud Vis
km
Sea
Height
m
Swell
Dir  Spd
kts
Gust
kts
hPa Trend Height
m
Period
s
Dir
09/11:30pm 16.7 ESE 8 12 1017.4 - 0.0 - - - - - - -
09/11:00pm 16.8 ESE 8 12 1017.7 - 0.0 - - - - - - -
09/10:30pm 16.9 ESE 6 10 1017.9 - 0.0 - - - - - - -
09/10:00pm 17.0 SE 8 11 1018.1 - 0.0 - - - - - - -
09/09:30pm 17.0 SE 11 15 1018.1 - 0.0 - - - - - - -
09/09:00pm 17.1 SE 9 13 1018.0 - 0.0 - - - - - - -
09/08:30pm 17.4 SE 9 13 1017.9 - 0.0 - - - - - - -
09/08:00pm 17.7 SE 7 11 1017.6 - 0.0 - - - - - - -
09/07:30pm 17.5 SSE 7 11 1017.4 - 0.0 - - - - - - -
09/07:00pm 18.0 SSE 7 10 1017.1 - 0.0 - - - - - - -
09/06:30pm 19.2 S 5 8 1016.7 - 0.0 - - - - - - -
09/06:00pm 20.8 S 5 7 1016.4 - 0.0 - - - - - - -
09/05:30pm 21.0 S 5 7 1016.0 - 0.0 - - - - - - -
09/05:00pm 21.2 SSE 7 11 1015.7 - 0.0 - - - - - - -
09/04:30pm 21.3 S 7 10 1015.6 - 0.0 - - - - - - -
09/04:00pm 21.6 S 7 13 1015.4 - 0.0 - - - - - - -
09/03:30pm 21.4 S 9 13 1015.3 - 0.0 - - - - - - -
09/03:00pm 21.8 S 7 11 1015.3 - 0.0 - - - - - - -
09/02:30pm 22.5 SSE 8 16 1015.3 - 0.0 - - - - - - -
09/02:00pm 21.5 S 9 17 1015.6 - 0.0 - - - - - - -
09/01:30pm 21.4 S 7 14 1015.3 - 0.0 - - - - - - -
09/01:00pm 22.4 S 6 11 1015.5 - 0.0 - - - - - - -
09/12:30pm 22.9 S 8 11 1015.4 - 0.0 - - - - - - -
09/12:00pm 24.1 S 7 13 1015.6 - 0.0 - - - - - - -
09/11:30am 25.5 S 6 11 1015.7 - 0.0 - - - - - - -
09/11:00am 26.0 S 7 10 1015.8 - 0.0 - - - - - - -
09/10:30am 26.3 NNW 4 7 1016.0 - 0.0 - - - - - - -
09/10:00am 25.2 NE 4 8 1016.4 - 0.0 - - - - - - -
09/09:30am 23.6 NNW 5 7 1016.6 - 0.0 - - - - - - -
09/09:00am 21.7 N 5 10 1016.7 - 0.0 - - - - - - -
09/08:30am 19.9 NNE 8 15 1016.7 - 0.0 - - - - - - -
09/08:00am 17.8 NNE 7 13 1017.2 - 0.0 - - - - - - -
09/07:30am 16.1 ENE 6 9 1017.6 - 0.0 - - - - - - -
09/07:00am 14.5 ENE 6 9 1017.9 - 0.0 - - - - - - -
09/06:30am 13.2 ENE 7 11 1017.9 - 0.0 - - - - - - -
09/06:00am 11.8 ENE 4 5 1018.0 - 0.0 - - - - - - -
09/05:30am 10.9 ENE 5 7 1018.0 - 0.0 - - - - - - -
09/05:00am 10.5 ENE 5 9 1018.0 - 0.0 - - - - - - -
09/04:30am 10.4 E 5 8 1017.7 - 0.0 - - - - - - -
09/04:00am 10.2 E 5 8 1017.6 - 0.0 - - - - - - -
09/03:30am 10.3 E 5 7 1017.6 - 0.0 - - - - - - -
09/03:00am 10.4 E 6 8 1017.9 - 0.0 - - - - - - -
09/02:30am 10.7 ENE 4 5 1018.1 - 0.0 - - - - - - -
09/02:00am 10.9 ENE 4 6 1018.3 - 0.0 - - - - - - -
09/01:30am 11.3 ENE 5 9 1018.1 - 0.0 - - - - - - -
09/01:00am 11.7 ENE 6 10 1018.3 - 0.0 - - - - - - -
09/12:30am 12.0 E 6 11 1018.4 - 0.0 - - - - - - -
09/12:00am 12.2 ENE 7 11 1018.6 - 0.0 - - - - - - -
 
Date/Time
WST
Temp
°C
Wind Pressure Rain since
9am
mm
Weather Cloud Vis
km
Sea
Height
m
Swell
Dir  Spd
kts
Gust
kts
hPa Trend Height
m
Period
s
Dir
08/11:30pm 12.5 ENE 7 14 1018.7 - 0.0 - - - - - - -
08/11:00pm 12.6 ENE 7 12 1019.0 - 0.0 - - - - - - -
08/10:30pm 12.9 E 6 9 1019.4 - 0.0 - - - - - - -
08/10:00pm 13.3 E 7 13 1019.6 - 0.0 - - - - - - -
08/09:30pm 13.7 E 7 11 1019.9 - 0.0 - - - - - - -
08/09:00pm 13.7 ESE 7 9 1020.1 - 0.0 - - - - - - -
08/08:30pm 13.9 ESE 8 11 1020.2 - 0.0 - - - - - - -
08/08:00pm 14.1 ESE 7 10 1020.0 - 0.0 - - - - - - -
08/07:30pm 14.6 ESE 8 12 1019.9 - 0.0 - - - - - - -
08/07:00pm 15.0 ESE 9 14 1020.0 - 0.0 - - - - - - -
08/06:30pm 15.6 SE 12 16 1020.0 - 0.0 - - - - - - -
08/06:00pm 16.4 SE 10 17 1020.0 - 0.0 - - - - - - -
08/05:30pm 16.7 ESE 10 15 1019.4 - 0.0 - - - - - - -
08/05:00pm 16.6 SE 11 16 1019.4 - 0.0 - - - - - - -
08/04:30pm 16.1 ESE 9 14 1019.5 - 0.0 - - - - - - -
08/04:00pm 15.2 ESE 10 14 1019.6 - 0.0 - - - - - - -
08/03:30pm 15.3 SE 12 18 1019.8 - 0.0 - - - - - - -
08/03:00pm 15.6 SE 9 14 1020.0 - 0.0 - - - - - - -
08/02:30pm 15.8 SE 9 14 1020.3 - 0.0 - - - - - - -
08/02:00pm 16.1 SSE 11 15 1020.2 - 0.0 - - - - - - -
08/01:30pm 18.7 SSE 10 17 1020.3 - 0.0 - - - - - - -
08/01:00pm 18.8 SSE 11 17 1020.6 - 0.0 - - - - - - -
08/12:30pm 18.9 SSE 9 14 1021.0 - 0.0 - - - - - - -
08/12:00pm 19.4 SSE 8 14 1021.2 - 0.0 - - - - - - -
08/11:30am 18.6 S 10 18 1021.5 - 0.0 - - - - - - -
08/11:00am 18.8 SSW 9 15 1021.8 - 0.0 - - - - - - -
08/10:30am 17.8 SSE 6 11 1022.0 - 0.0 - - - - - - -
08/10:00am 18.3 ENE 5 8 1022.2 - 0.0 - - - - - - -
08/09:30am 17.9 E 4 7 1022.3 - 0.0 - - - - - - -
08/09:00am 16.6 ENE 4 7 1022.4 - 0.0 - - - - - - -
08/08:30am 16.2 ENE 5 9 1022.5 - 0.0 - - - - - - -
08/08:00am 16.3 E 7 10 1022.5 - 0.0 - - - - - - -
08/07:30am 15.4 ESE 9 14 1022.4 - 0.0 - - - - - - -
08/07:00am 14.8 ESE 7 10 1022.3 - 0.0 - - - - - - -
08/06:30am 13.7 E 4 6 1022.0 - 0.0 - - - - - - -
08/06:00am 12.3 ENE 3 5 1021.9 - 0.0 - - - - - - -
08/05:30am 12.3 ENE 5 7 1021.6 - 0.0 - - - - - - -
08/05:00am 12.7 CALM 0 0 1021.5 - 0.0 - - - - - - -
08/04:30am 12.9 ESE 2 5 1021.5 - 0.0 - - - - - - -
08/04:00am 12.8 ESE 4 6 1021.3 - 0.0 - - - - - - -
08/03:30am 12.4 E 6 8 1020.8 - 0.0 - - - - - - -
08/03:00am 12.7 ENE 5 7 1020.8 - 0.0 - - - - - - -
08/02:30am 12.2 E 4 6 1020.7 - 0.0 - - - - - - -
08/02:00am 12.6 ESE 7 10 1020.6 - 0.0 - - - - - - -
08/01:30am 12.9 E 5 6 1020.9 - 0.0 - - - - - - -
08/01:00am 13.1 E 7 10 1021.2 - 0.0 - - - - - - -
08/12:30am 13.1 ESE 4 8 1021.6 - 0.0 - - - - - - -
08/12:00am 13.4 ESE 6 9 1021.7 - 0.0 - - - - - - -
 
Date/Time
WST
Temp
°C
Wind Pressure Rain since
9am
mm
Weather Cloud Vis
km
Sea
Height
m
Swell
Dir  Spd
kts
Gust
kts
hPa Trend Height
m
Period
s
Dir
07/11:30pm 13.3 SE 6 9 1021.7 - 0.0 - - - - - - -
07/11:00pm 13.3 SE 7 9 1021.9 - 0.0 - - - - - - -
07/10:30pm 13.5 SE 5 9 1022.1 - 0.0 - - - - - - -
07/10:00pm 13.5 SSE 5 11 1022.2 - 0.0 - - - - - - -
07/09:30pm 13.7 S 6 12 1022.1 - 0.0 - - - - - - -
07/09:00pm 14.0 SSE 5 11 1021.9 - 0.0 - - - - - - -
07/08:30pm 14.2 S 5 11 1021.7 - 0.0 - - - - - - -
07/08:00pm 14.3 S 5 9 1021.4 - 0.0 - - - - - - -
07/07:30pm 14.2 S 6 11 1021.1 - 0.0 - - - - - - -
07/07:00pm 14.8 S 5 12 1020.7 - 0.0 - - - - - - -
07/06:30pm 14.4 SSW 7 11 1020.5 - 0.0 - - - - - - -
07/06:00pm 15.4 SSW 10 15 1020.4 - 0.0 - - - - - - -
07/05:30pm 15.8 SSW 12 18 1019.9 - 0.0 - - - - - - -
07/05:00pm 16.4 S 10 19 1019.4 - 0.0 - - - - - - -

Other Formats:

Comma delimited format used in spreadsheet applications
http://www.bom.gov.au/fwo/IDW60701/IDW60701.95647.axf

JavaScript Object Notation format (JSON) in row-major order
http://www.bom.gov.au/fwo/IDW60701/IDW60701.95647.json